Time;durP1;ratioP1;P1;durP2;ratioP2;P2;SDS_P1;SDS_P2;PMS_P1;PMS_P2;Temp;Humidity;BMP_temperature;BMP_pressure;BME280_temperature;BME280_humidity;BME280_pressure;Samples;Min_cycle;Max_cycle;Signal;HPM_P1;HPM_P2
2023/12/01 00:00:25;;;;;;;24.13;10.23;;;-0.30;99.90;;;;;;4117159;28;20079;-79
2023/12/01 00:02:28;;;;;;;25.60;10.18;;;0.40;99.90;;;;;;4133041;28;20047;-79
2023/12/01 00:04:35;;;;;;;25.10;9.65;;;-0.30;99.90;;;;;;4133000;28;20047;-79
2023/12/01 00:06:45;;;;;;;29.98;11.75;;;-0.30;99.90;;;;;;4115805;29;20039;-79
2023/12/01 00:08:47;;;;;;;27.73;10.02;;;0.40;99.90;;;;;;4131712;28;20079;-80
2023/12/01 00:10:51;;;;;;;27.40;10.80;;;-0.30;99.90;;;;;;4148002;28;20058;-79
2023/12/01 00:13:00;;;;;;;22.30;10.32;;;-0.30;99.90;;;;;;4116915;28;20039;-80
2023/12/01 00:15:02;;;;;;;24.08;10.05;;;-0.30;99.90;;;;;;4131415;28;20110;-79
2023/12/01 00:17:14;;;;;;;23.73;9.85;;;-0.30;99.90;;;;;;4116619;29;20062;-80
2023/12/01 00:19:24;;;;;;;27.92;10.15;;;-0.40;99.90;;;;;;4148029;28;20038;-80
2023/12/01 00:21:38;;;;;;;28.20;10.60;;;-0.30;99.90;;;;;;4140294;28;20047;-80
2023/12/01 00:24:00;;;;;;;26.67;10.43;;;-0.40;99.90;;;;;;4133770;28;20027;-79
2023/12/01 00:26:04;;;;;;;33.42;11.82;;;-0.40;99.90;;;;;;4115140;29;20143;-80
2023/12/01 00:28:06;;;;;;;25.90;8.90;;;-0.40;99.90;;;;;;4147944;28;20057;-80
2023/12/01 00:30:21;;;;;;;27.08;10.77;;;-0.40;99.90;;;;;;4117317;28;20071;-80
2023/12/01 00:32:33;;;;;;;26.55;10.10;;;0.20;99.90;;;;;;4133147;28;20050;-79
2023/12/01 00:34:47;;;;;;;25.23;10.10;;;0.90;99.90;;;;;;4132005;28;20137;-79
2023/12/01 00:36:50;;;;;;;27.60;10.63;;;-0.40;99.90;;;;;;4131771;28;20055;-79
2023/12/01 00:39:06;;;;;;;27.40;10.02;;;-0.50;99.90;;;;;;4116262;29;20073;-79
2023/12/01 00:41:24;;;;;;;25.25;10.18;;;-0.50;99.90;;;;;;4117026;28;20051;-79
2023/12/01 00:43:26;;;;;;;31.67;11.25;;;-0.50;99.90;;;;;;4115623;28;20043;-79
2023/12/01 00:45:35;;;;;;;32.15;10.30;;;-0.50;99.90;;;;;;4133139;28;20078;-79
2023/12/01 00:47:44;;;;;;;32.88;11.80;;;-0.50;99.90;;;;;;4133348;28;20042;-79
2023/12/01 00:49:54;;;;;;;35.92;11.93;;;-0.60;99.90;;;;;;4132608;28;20062;-79
2023/12/01 00:52:01;;;;;;;31.10;10.63;;;-0.60;99.90;;;;;;4118246;29;20042;-79
2023/12/01 00:54:11;;;;;;;35.05;12.23;;;-0.60;99.90;;;;;;4133213;28;20058;-79
2023/12/01 00:56:24;;;;;;;30.35;10.88;;;-0.60;99.90;;;;;;4133176;28;20062;-80
2023/12/01 00:58:32;;;;;;;31.33;10.77;;;-0.60;99.90;;;;;;4133037;28;20065;-79
2023/12/01 01:00:41;;;;;;;31.02;11.55;;;-0.70;99.90;;;;;;4132974;28;20046;-80
2023/12/01 01:02:52;;;;;;;30.25;10.77;;;-0.70;99.90;;;;;;4133942;28;20050;-80
2023/12/01 01:04:58;;;;;;;30.33;11.88;;;-1.30;99.90;;;;;;4117124;29;20047;-80
2023/12/01 01:07:10;;;;;;;32.67;12.48;;;-0.70;99.90;;;;;;4117769;28;20107;-79
2023/12/01 01:09:31;;;;;;;36.63;11.07;;;-0.80;99.90;;;;;;4133177;28;20090;-80
2023/12/01 01:11:36;;;;;;;35.80;12.15;;;-0.80;99.90;;;;;;4132780;28;20129;-80
2023/12/01 01:13:40;;;;;;;37.42;11.88;;;-0.80;99.90;;;;;;4116370;29;20042;-80
2023/12/01 01:16:00;;;;;;;36.92;13.70;;;0.00;99.90;;;;;;4117756;28;20055;-80
2023/12/01 01:18:01;;;;;;;35.63;14.40;;;-0.90;99.90;;;;;;4116146;29;20051;-80
2023/12/01 01:20:16;;;;;;;38.63;15.00;;;-0.90;99.90;;;;;;4117662;28;20043;-80
2023/12/01 01:22:22;;;;;;;35.28;12.80;;;-0.80;99.90;;;;;;4126986;28;20046;-79
2023/12/01 01:24:26;;;;;;;38.15;13.43;;;-0.90;99.90;;;;;;4132344;28;20657;-80
2023/12/01 01:26:27;;;;;;;37.17;13.15;;;-0.80;99.90;;;;;;4132129;28;20051;-80
2023/12/01 01:28:33;;;;;;;36.25;12.18;;;-0.80;99.90;;;;;;4116409;29;20062;-79
2023/12/01 01:30:37;;;;;;;41.72;12.68;;;0.30;99.90;;;;;;4131637;28;20050;-80
2023/12/01 01:32:43;;;;;;;33.38;11.38;;;-0.80;99.90;;;;;;4133800;28;20042;-80
2023/12/01 01:35:03;;;;;;;36.60;12.00;;;-0.80;99.90;;;;;;4116975;29;20053;-80
2023/12/01 01:37:07;;;;;;;41.72;13.68;;;-0.80;99.90;;;;;;4132882;28;20047;-80
2023/12/01 01:39:15;;;;;;;35.42;11.95;;;-0.80;99.90;;;;;;4132131;28;20408;-79
2023/12/01 01:41:21;;;;;;;42.30;13.77;;;-0.80;99.90;;;;;;4130572;28;20042;-79
2023/12/01 01:43:32;;;;;;;38.53;12.13;;;-0.80;99.90;;;;;;4132258;28;20038;-80
2023/12/01 01:45:41;;;;;;;36.65;11.68;;;-0.80;99.90;;;;;;4131071;28;20058;-80
2023/12/01 01:47:43;;;;;;;32.97;11.70;;;-0.80;99.90;;;;;;4127454;28;20046;-80
2023/12/01 01:49:47;;;;;;;40.22;13.90;;;0.60;99.90;;;;;;4146527;28;20081;-80
2023/12/01 01:51:52;;;;;;;36.50;12.73;;;-0.80;99.90;;;;;;4146760;28;20042;-80
2023/12/01 01:54:10;;;;;;;35.47;12.60;;;-0.90;99.90;;;;;;4130587;28;20051;-80
2023/12/01 01:56:21;;;;;;;37.00;12.27;;;-1.00;99.90;;;;;;4115406;29;20073;-80
2023/12/01 01:58:21;;;;;;;35.15;12.65;;;-0.90;99.90;;;;;;4115776;29;20055;-80
2023/12/01 02:00:33;;;;;;;36.03;12.25;;;-0.80;99.90;;;;;;4132029;28;20051;-79
2023/12/01 02:02:46;;;;;;;36.53;12.05;;;-0.90;99.90;;;;;;4115318;28;20058;-79
2023/12/01 02:05:00;;;;;;;41.70;14.55;;;-0.90;99.90;;;;;;4132463;28;20054;-80
2023/12/01 02:07:10;;;;;;;37.50;12.32;;;-0.90;99.90;;;;;;4135878;28;20039;-80
2023/12/01 02:09:16;;;;;;;39.22;13.65;;;-0.90;99.90;;;;;;4163741;28;20057;-80
2023/12/01 02:11:20;;;;;;;45.20;12.40;;;-1.30;99.90;;;;;;4146582;28;20393;-80
2023/12/01 02:13:32;;;;;;;35.63;12.40;;;-1.00;99.90;;;;;;4147861;28;20050;-80
2023/12/01 02:15:36;;;;;;;35.35;12.48;;;-0.90;99.90;;;;;;4163668;28;20077;-80
2023/12/01 02:17:50;;;;;;;37.67;12.05;;;-1.40;99.90;;;;;;4146969;28;20082;-80
2023/12/01 02:20:14;;;;;;;36.92;12.63;;;-0.90;99.90;;;;;;4147474;28;20046;-80
2023/12/01 02:22:22;;;;;;;42.60;13.43;;;-0.90;99.90;;;;;;4136071;28;20047;-79
2023/12/01 02:24:34;;;;;;;36.35;12.48;;;-1.30;99.90;;;;;;4130024;28;20070;-79
2023/12/01 02:26:37;;;;;;;36.25;11.57;;;-0.60;99.90;;;;;;4114517;29;20039;-80
2023/12/01 02:28:44;;;;;;;36.30;13.07;;;-0.60;99.90;;;;;;4131347;28;20074;-79
2023/12/01 02:30:52;;;;;;;35.88;12.70;;;-1.10;99.90;;;;;;4129916;28;20420;-79
2023/12/01 02:33:00;;;;;;;41.65;14.20;;;-1.50;99.90;;;;;;4115137;28;20129;-79
2023/12/01 02:35:09;;;;;;;39.90;13.27;;;-1.10;99.90;;;;;;4137880;28;20050;-80
2023/12/01 02:37:29;;;;;;;40.65;13.30;;;-1.10;99.90;;;;;;4136079;28;20370;-79
2023/12/01 02:39:50;;;;;;;44.08;12.27;;;-1.20;99.90;;;;;;4116314;29;20058;-80
2023/12/01 02:41:55;;;;;;;38.40;12.30;;;-1.20;99.90;;;;;;4132520;28;20046;-79
2023/12/01 02:44:00;;;;;;;37.17;11.80;;;-1.30;99.90;;;;;;4131625;28;20047;-79
2023/12/01 02:46:12;;;;;;;36.33;11.95;;;-1.40;99.90;;;;;;4115202;29;20177;-79
2023/12/01 02:48:23;;;;;;;37.50;12.05;;;-1.30;99.90;;;;;;4099304;29;20051;-79
2023/12/01 02:50:35;;;;;;;32.35;11.13;;;-1.30;99.90;;;;;;4099977;29;20059;-79
2023/12/01 02:52:49;;;;;;;34.63;11.20;;;-1.30;99.90;;;;;;4117371;28;20055;-80
2023/12/01 02:54:54;;;;;;;31.73;10.20;;;-0.50;99.90;;;;;;4132522;28;20055;-80
2023/12/01 02:57:05;;;;;;;34.10;10.85;;;-1.40;99.90;;;;;;4131834;28;20146;-79
2023/12/01 02:59:06;;;;;;;34.35;10.73;;;-1.30;99.90;;;;;;4132521;28;20051;-79
2023/12/01 03:01:08;;;;;;;28.48;9.55;;;-1.90;99.90;;;;;;4132547;28;20030;-79
2023/12/01 03:03:15;;;;;;;31.70;11.07;;;-1.40;99.90;;;;;;4135048;28;20050;-79
2023/12/01 03:05:31;;;;;;;36.50;12.95;;;-0.50;99.90;;;;;;4116982;28;20054;-79
2023/12/01 03:07:38;;;;;;;35.17;11.20;;;-0.60;99.90;;;;;;4119525;29;20083;-80
2023/12/01 03:09:49;;;;;;;34.03;13.10;;;-1.50;99.90;;;;;;4135281;28;20043;-80
2023/12/01 03:12:01;;;;;;;35.00;11.07;;;-1.70;99.90;;;;;;4119538;29;20082;-80
2023/12/01 03:14:07;;;;;;;37.75;12.18;;;-1.20;99.90;;;;;;4104882;29;20588;-79
2023/12/01 03:16:11;;;;;;;31.83;11.70;;;-1.60;99.90;;;;;;4119161;28;20055;-80
2023/12/01 03:18:20;;;;;;;32.50;10.20;;;-1.70;99.90;;;;;;4119093;29;20514;-80
2023/12/01 03:20:28;;;;;;;27.48;10.07;;;-1.70;99.90;;;;;;4135669;28;20061;-80
2023/12/01 03:22:32;;;;;;;37.42;13.20;;;-1.80;99.90;;;;;;4135681;28;20066;-80
2023/12/01 03:24:37;;;;;;;30.35;11.43;;;-1.70;99.90;;;;;;4118111;29;20063;-81
2023/12/01 03:26:47;;;;;;;30.30;11.35;;;-1.70;99.90;;;;;;4156665;28;20065;-79
2023/12/01 03:29:04;;;;;;;38.30;13.57;;;-2.10;99.90;;;;;;4137429;28;20090;-79
2023/12/01 03:31:08;;;;;;;34.55;10.73;;;-1.70;99.90;;;;;;4118379;28;20583;-79
2023/12/01 03:33:13;;;;;;;33.65;10.98;;;-1.80;99.90;;;;;;4135114;28;20046;-80
2023/12/01 03:35:24;;;;;;;36.25;11.65;;;-1.20;99.90;;;;;;4134359;28;20050;-80
2023/12/01 03:37:32;;;;;;;35.00;11.13;;;-1.80;99.90;;;;;;4150965;28;20055;-80
2023/12/01 03:39:41;;;;;;;28.75;10.77;;;-1.90;99.90;;;;;;4154017;28;20073;-78
2023/12/01 03:41:50;;;;;;;32.22;11.07;;;-1.90;99.90;;;;;;4169156;28;20050;-79
2023/12/01 03:44:04;;;;;;;;;;;-1.30;99.90;;;;;;4153221;28;20181;-79
2023/12/01 03:46:16;;;;;;;37.33;11.57;;;-2.00;99.90;;;;;;4152513;28;19921;-79
2023/12/01 03:48:17;;;;;;;35.03;12.43;;;-2.00;99.90;;;;;;4138094;28;20045;-80
2023/12/01 03:50:39;;;;;;;34.55;11.82;;;-1.80;99.90;;;;;;4137856;28;20058;-80
2023/12/01 03:52:52;;;;;;;35.90;12.20;;;-2.10;99.90;;;;;;4136929;28;20090;-81
2023/12/01 03:54:58;;;;;;;33.40;11.57;;;-2.40;99.90;;;;;;4136587;28;20047;-80
2023/12/01 03:57:14;;;;;;;35.72;11.88;;;-1.00;99.90;;;;;;4136385;28;20109;-79
2023/12/01 03:59:22;;;;;;;33.28;12.18;;;-2.10;99.90;;;;;;4134743;28;20042;-79
2023/12/01 04:01:33;;;;;;;32.28;10.73;;;-2.10;99.90;;;;;;4134620;28;20047;-79
2023/12/01 04:03:37;;;;;;;32.65;11.60;;;-2.10;99.90;;;;;;4135158;28;20047;-79
2023/12/01 04:05:44;;;;;;;35.33;12.88;;;-2.20;99.90;;;;;;4119409;28;20043;-80
2023/12/01 04:08:08;;;;;;;33.13;12.18;;;-2.20;99.90;;;;;;4134270;28;20074;-79
2023/12/01 04:10:40;;;;;;;42.28;12.32;;;-2.30;99.90;;;;;;4135445;28;20170;-80
2023/12/01 04:12:47;;;;;;;31.83;11.02;;;-2.30;99.90;;;;;;4135681;28;20042;-80
2023/12/01 04:14:54;;;;;;;30.65;10.82;;;-2.40;99.90;;;;;;4135189;28;20094;-80
2023/12/01 04:17:08;;;;;;;39.33;11.98;;;-2.40;99.90;;;;;;4152103;28;20047;-80
2023/12/01 04:19:21;;;;;;;33.38;11.02;;;-2.10;99.90;;;;;;4134956;28;20059;-80
2023/12/01 04:21:39;;;;;;;34.63;12.15;;;-2.30;99.90;;;;;;4135225;28;20085;-80
2023/12/01 04:23:58;;;;;;;38.58;13.70;;;-2.50;99.90;;;;;;4120548;28;20066;-80
2023/12/01 04:26:08;;;;;;;29.50;10.43;;;-2.40;99.90;;;;;;4151163;28;20050;-80
2023/12/01 04:28:12;;;;;;;29.85;10.15;;;-2.40;99.90;;;;;;4152456;28;20058;-80
2023/12/01 04:30:35;;;;;;;37.33;10.70;;;-2.40;99.90;;;;;;4152642;28;20077;-80
2023/12/01 04:32:54;;;;;;;29.90;10.15;;;-2.40;99.90;;;;;;4151562;28;20051;-80
2023/12/01 04:35:07;;;;;;;30.42;10.95;;;-2.50;99.90;;;;;;4135373;28;20035;-79
2023/12/01 04:37:11;;;;;;;30.65;10.00;;;-2.50;99.90;;;;;;4152015;28;20057;-80
2023/12/01 04:39:14;;;;;;;32.28;10.80;;;-2.50;99.90;;;;;;4135644;28;20043;-80
2023/12/01 04:41:37;;;;;;;37.70;11.50;;;-1.50;99.90;;;;;;4167654;28;20042;-79
2023/12/01 04:44:13;;;;;;;35.35;11.63;;;-2.50;99.90;;;;;;4167588;28;20081;-79
2023/12/01 04:46:24;;;;;;;32.47;11.57;;;-2.60;99.90;;;;;;4161694;28;20046;-79
2023/12/01 04:48:27;;;;;;;32.42;11.23;;;-2.60;99.90;;;;;;4119854;28;20124;-80
2023/12/01 04:50:46;;;;;;;31.85;10.48;;;-2.60;99.90;;;;;;4135408;28;20055;-80
2023/12/01 04:53:04;;;;;;;29.77;10.35;;;-2.60;99.90;;;;;;4134971;28;20043;-80
2023/12/01 04:55:14;;;;;;;29.75;9.70;;;-2.60;99.90;;;;;;4150781;28;20058;-80
2023/12/01 04:57:33;;;;;;;33.40;11.20;;;-2.70;99.90;;;;;;4134556;28;20061;-80
2023/12/01 04:59:42;;;;;;;27.35;9.35;;;-2.70;99.90;;;;;;4118933;29;20050;-80
2023/12/01 05:01:57;;;;;;;27.42;11.27;;;-2.70;99.90;;;;;;4128455;28;20027;-80
2023/12/01 05:04:00;;;;;;;34.13;11.35;;;-2.70;99.90;;;;;;4134766;28;20074;-80
2023/12/01 05:06:04;;;;;;;29.15;9.95;;;-2.70;99.90;;;;;;4118113;29;20136;-80
2023/12/01 05:08:30;;;;;;;29.23;10.70;;;-2.70;99.90;;;;;;4119532;28;20107;-80
2023/12/01 05:11:00;;;;;;;31.40;11.07;;;-2.70;99.90;;;;;;4133793;28;20051;-79
2023/12/01 05:13:33;;;;;;;37.85;10.55;;;-2.70;99.90;;;;;;4134020;28;20122;-79
2023/12/01 05:15:56;;;;;;;30.40;10.20;;;-2.70;99.90;;;;;;4135280;28;20054;-80
2023/12/01 05:18:07;;;;;;;26.35;8.18;;;-2.40;99.90;;;;;;4134824;28;20082;-80
2023/12/01 05:20:23;;;;;;;26.00;8.98;;;-2.70;99.90;;;;;;4134655;28;20050;-80
2023/12/01 05:22:49;;;;;;;30.90;9.60;;;-2.90;99.90;;;;;;4135431;28;20049;-80
2023/12/01 05:24:54;;;;;;;33.47;11.25;;;-2.80;99.90;;;;;;4134281;28;20053;-80
2023/12/01 05:27:07;;;;;;;28.60;8.52;;;-2.90;99.90;;;;;;4118789;28;20047;-80
2023/12/01 05:29:19;;;;;;;27.85;10.63;;;-3.10;99.90;;;;;;4150389;28;20495;-80
2023/12/01 05:31:31;;;;;;;29.92;9.88;;;-2.80;99.90;;;;;;4119130;28;20091;-80
2023/12/01 05:33:46;;;;;;;25.73;9.30;;;-2.80;99.90;;;;;;4117122;28;20075;-80
2023/12/01 05:35:55;;;;;;;29.80;9.10;;;-2.80;99.90;;;;;;4133681;28;20082;-80
2023/12/01 05:38:21;;;;;;;30.45;10.35;;;-3.20;99.90;;;;;;4127624;28;20050;-80
2023/12/01 05:40:30;;;;;;;27.23;9.40;;;-2.90;99.90;;;;;;4131101;28;20066;-80
2023/12/01 05:42:37;;;;;;;;;;;-2.90;99.90;;;;;;4134923;28;20027;-80
2023/12/01 05:44:44;;;;;;;27.65;9.40;;;-2.90;99.90;;;;;;4135270;28;19922;-80
2023/12/01 05:46:52;;;;;;;25.95;9.02;;;-2.90;99.90;;;;;;4134064;28;20046;-80
2023/12/01 05:49:37;;;;;;;27.88;8.80;;;-2.90;99.90;;;;;;4103411;29;20035;-80
2023/12/01 05:51:47;;;;;;;;;;;-3.00;99.90;;;;;;4134557;28;20062;-80
2023/12/01 05:53:51;;;;;;;28.15;8.73;;;-3.00;99.90;;;;;;4118106;29;19922;-80
2023/12/01 05:56:07;;;;;;;23.58;7.97;;;-2.20;99.90;;;;;;4123701;28;20102;-80
2023/12/01 05:58:23;;;;;;;31.98;8.82;;;-3.00;99.90;;;;;;4134256;28;20110;-80
2023/12/01 06:00:29;;;;;;;30.48;9.95;;;-2.00;99.90;;;;;;4132650;28;20119;-80
2023/12/01 06:02:47;;;;;;;27.10;9.23;;;-3.10;99.90;;;;;;4120048;28;20028;-80
2023/12/01 06:05:04;;;;;;;25.33;8.90;;;-3.60;99.90;;;;;;4115315;28;20058;-79
2023/12/01 06:07:18;;;;;;;22.30;8.27;;;-3.10;99.90;;;;;;4148017;28;20042;-80
2023/12/01 06:09:27;;;;;;;23.88;8.27;;;-3.20;99.90;;;;;;4149990;28;20081;-80
2023/12/01 06:11:30;;;;;;;26.75;8.85;;;-3.10;99.90;;;;;;4148094;28;20050;-79
2023/12/01 06:13:48;;;;;;;26.00;9.18;;;-3.20;99.90;;;;;;4149889;28;20034;-80
2023/12/01 06:16:01;;;;;;;24.80;8.98;;;-3.20;99.90;;;;;;4149805;28;20050;-80
2023/12/01 06:18:23;;;;;;;27.75;9.50;;;-3.20;99.90;;;;;;4135098;28;20051;-80
2023/12/01 06:20:31;;;;;;;24.80;8.35;;;-3.20;99.90;;;;;;4150251;28;20046;-80
2023/12/01 06:22:46;;;;;;;27.50;9.52;;;-3.20;99.90;;;;;;4134564;28;20110;-80
2023/12/01 06:25:12;;;;;;;21.33;7.35;;;-3.40;99.90;;;;;;4132920;28;20054;-80
2023/12/01 06:27:22;;;;;;;23.13;7.72;;;-3.20;99.90;;;;;;4147616;28;20064;-80
2023/12/01 06:29:51;;;;;;;26.77;8.40;;;-3.70;99.90;;;;;;4118471;29;20041;-80
2023/12/01 06:32:16;;;;;;;26.73;9.60;;;-3.20;99.90;;;;;;4117904;28;20043;-80
2023/12/01 06:35:18;;;;;;;25.10;7.90;;;-3.30;99.90;;;;;;4119001;28;20054;-80
2023/12/01 06:37:26;;;;;;;23.20;7.78;;;-3.30;99.90;;;;;;4118484;28;20046;-80
2023/12/01 06:39:45;;;;;;;24.45;8.00;;;-3.70;99.90;;;;;;4149483;28;20066;-80
2023/12/01 06:41:50;;;;;;;21.75;7.47;;;-3.10;99.90;;;;;;4138867;28;20050;-80
2023/12/01 06:44:12;;;;;;;23.95;7.82;;;-3.40;99.90;;;;;;4137319;28;20086;-80
2023/12/01 06:46:19;;;;;;;24.95;8.32;;;-3.40;99.90;;;;;;4136890;28;20510;-80
2023/12/01 06:48:27;;;;;;;24.88;7.88;;;-3.40;99.90;;;;;;4137099;28;20050;-80
2023/12/01 06:50:34;;;;;;;21.23;7.38;;;-3.40;99.90;;;;;;4138211;28;20043;-80
2023/12/01 06:52:50;;;;;;;23.17;8.40;;;-3.40;99.90;;;;;;4137057;28;20038;-80
2023/12/01 06:55:05;;;;;;;24.38;7.75;;;-3.40;99.90;;;;;;4121296;28;20075;-80
2023/12/01 06:57:06;;;;;;;20.92;7.13;;;-3.40;99.90;;;;;;4105216;29;20082;-80
2023/12/01 06:59:25;;;;;;;19.40;7.45;;;-3.50;99.90;;;;;;4134937;28;20077;-80
2023/12/01 07:01:43;;;;;;;21.87;8.13;;;-3.90;99.90;;;;;;4137488;28;20042;-80
2023/12/01 07:03:48;;;;;;;25.25;8.63;;;-3.50;99.90;;;;;;4153190;28;20105;-80
2023/12/01 07:05:54;;;;;;;27.65;9.18;;;-3.50;99.90;;;;;;4137156;28;20059;-81
2023/12/01 07:08:28;;;;;;;22.67;8.52;;;-3.40;99.90;;;;;;4134574;28;20054;-80
2023/12/01 07:10:58;;;;;;;23.98;7.53;;;-3.40;99.90;;;;;;4120501;28;20065;-80
2023/12/01 07:13:07;;;;;;;20.55;7.60;;;-3.50;99.90;;;;;;4136440;28;20050;-81
2023/12/01 07:15:24;;;;;;;23.15;7.47;;;-3.50;99.90;;;;;;4151236;28;20070;-80
2023/12/01 07:17:35;;;;;;;20.33;7.93;;;-3.50;99.90;;;;;;4120427;28;20047;-80
2023/12/01 07:19:45;;;;;;;21.55;8.48;;;-3.70;99.90;;;;;;4120118;28;20118;-80
2023/12/01 07:21:48;;;;;;;25.10;8.13;;;-3.00;99.90;;;;;;4136350;28;20062;-80
2023/12/01 07:24:17;;;;;;;25.63;8.98;;;-2.90;99.90;;;;;;4136528;28;20051;-80
2023/12/01 07:26:33;;;;;;;24.00;8.43;;;-3.60;99.90;;;;;;4136510;28;20039;-80
2023/12/01 07:28:42;;;;;;;22.85;8.90;;;-3.60;99.90;;;;;;4136360;28;20026;-80
2023/12/01 07:31:00;;;;;;;25.65;8.52;;;-3.80;99.90;;;;;;4136238;28;20051;-80
2023/12/01 07:33:10;;;;;;;26.88;9.57;;;-3.00;99.90;;;;;;4136136;28;20054;-79
2023/12/01 07:35:19;;;;;;;26.88;9.23;;;-3.60;99.90;;;;;;4116976;29;20043;-79
2023/12/01 07:37:32;;;;;;;27.00;9.18;;;-3.60;99.90;;;;;;4131120;28;20035;-79
2023/12/01 07:39:39;;;;;;;24.50;9.13;;;-3.60;99.90;;;;;;4120939;28;20032;-80
2023/12/01 07:41:43;;;;;;;29.45;9.50;;;-3.60;99.90;;;;;;4136000;28;20143;-79
2023/12/01 07:44:02;;;;;;;26.85;9.90;;;-3.60;99.90;;;;;;4134386;28;20067;-80
2023/12/01 07:46:05;;;;;;;30.20;9.93;;;-2.50;99.90;;;;;;4118492;29;20043;-80
2023/12/01 07:48:11;;;;;;;30.33;10.38;;;-3.60;99.90;;;;;;4136302;28;20053;-80
2023/12/01 07:50:17;;;;;;;25.25;9.18;;;-3.50;99.90;;;;;;4133897;28;20050;-80
2023/12/01 07:52:40;;;;;;;26.67;9.63;;;-2.40;99.90;;;;;;4119230;28;20063;-80
2023/12/01 07:54:52;;;;;;;30.05;8.80;;;-3.50;99.90;;;;;;4137019;28;20035;-80
2023/12/01 07:56:57;;;;;;;22.02;8.50;;;-3.60;99.90;;;;;;4136949;28;20111;-80
2023/12/01 07:59:07;;;;;;;29.05;10.63;;;-3.80;99.90;;;;;;4134865;28;20038;-80
2023/12/01 08:01:37;;;;;;;24.52;8.52;;;-3.60;99.90;;;;;;4122249;28;20074;-80
2023/12/01 08:03:39;;;;;;;31.35;8.85;;;-3.50;99.90;;;;;;4135444;28;20127;-80
2023/12/01 08:05:59;;;;;;;24.30;9.02;;;-3.40;99.90;;;;;;4135184;28;20049;-80
2023/12/01 08:08:17;;;;;;;30.95;9.35;;;-3.40;99.90;;;;;;4120926;28;20066;-80
2023/12/01 08:10:46;;;;;;;20.95;8.13;;;-3.30;99.90;;;;;;4114917;28;20035;-79
2023/12/01 08:12:59;;;;;;;27.50;9.20;;;-3.30;99.90;;;;;;4119114;29;20087;-80
2023/12/01 08:15:07;;;;;;;25.45;9.02;;;-3.20;99.90;;;;;;4135255;28;20062;-80
2023/12/01 08:17:33;;;;;;;26.70;8.93;;;-3.20;99.90;;;;;;4119890;28;20074;-80
2023/12/01 08:19:47;;;;;;;32.25;9.93;;;-3.10;99.90;;;;;;4135359;28;20055;-80
2023/12/01 08:21:57;;;;;;;31.75;10.63;;;-2.90;99.90;;;;;;4134677;28;20058;-80
2023/12/01 08:24:18;;;;;;;32.45;10.68;;;-2.70;99.90;;;;;;4134603;28;20049;-78
2023/12/01 08:26:24;;;;;;;28.38;9.45;;;-2.30;99.90;;;;;;4117049;29;20043;-78
2023/12/01 08:28:32;;;;;;;25.02;8.88;;;-2.50;99.90;;;;;;4128134;28;20039;-77
2023/12/01 08:30:51;;;;;;;26.83;8.48;;;-2.60;99.90;;;;;;4134002;28;20050;-78
2023/12/01 08:32:54;;;;;;;27.20;9.32;;;-2.30;99.90;;;;;;4133545;28;20133;-77
2023/12/01 08:34:58;;;;;;;30.75;9.82;;;-2.10;99.90;;;;;;4133692;28;20054;-79
2023/12/01 08:37:04;;;;;;;28.42;10.15;;;-1.90;99.90;;;;;;4134016;28;20058;-78
2023/12/01 08:39:23;;;;;;;30.38;8.80;;;-1.80;99.90;;;;;;4154975;28;20050;-79
2023/12/01 08:41:28;;;;;;;25.35;8.80;;;-1.70;99.90;;;;;;4146369;28;20048;-79
2023/12/01 08:43:38;;;;;;;26.83;9.80;;;-1.80;99.90;;;;;;4131021;28;20050;-79
2023/12/01 08:45:42;;;;;;;26.75;9.05;;;-1.60;99.90;;;;;;4114968;29;20055;-79
2023/12/01 08:47:51;;;;;;;27.23;9.30;;;-1.50;99.90;;;;;;4132214;28;20058;-77
2023/12/01 08:49:55;;;;;;;27.30;10.48;;;-1.20;99.90;;;;;;4132523;28;20516;-78
2023/12/01 08:52:02;;;;;;;24.48;8.82;;;0.10;99.90;;;;;;4129981;28;20046;-78
2023/12/01 08:54:03;;;;;;;23.52;9.32;;;-0.20;99.90;;;;;;4129051;28;20081;-79
2023/12/01 08:56:10;;;;;;;22.55;8.65;;;1.80;99.90;;;;;;4128375;28;20047;-79
2023/12/01 08:58:13;;;;;;;25.08;8.75;;;0.90;99.90;;;;;;4127907;28;20127;-79
2023/12/01 09:00:20;;;;;;;23.75;9.43;;;1.50;99.90;;;;;;4125578;28;20051;-79
2023/12/01 09:02:21;;;;;;;24.27;9.45;;;2.30;99.90;;;;;;4121845;28;20114;-81
2023/12/01 09:04:21;;;;;;;24.08;9.18;;;3.00;99.90;;;;;;4103599;28;20094;-79
2023/12/01 09:06:22;;;;;;;23.42;8.25;;;3.40;99.90;;;;;;4119705;28;20129;-79
2023/12/01 09:08:26;;;;;;;23.10;9.27;;;4.10;99.90;;;;;;4118054;28;20067;-80
2023/12/01 09:10:27;;;;;;;19.67;8.23;;;5.00;99.90;;;;;;4118131;28;20094;-79
2023/12/01 09:12:27;;;;;;;23.30;8.57;;;5.00;99.90;;;;;;4117889;28;20065;-80
2023/12/01 09:14:29;;;;;;;22.55;8.65;;;5.00;99.90;;;;;;4116678;28;20042;-80
2023/12/01 09:16:29;;;;;;;20.55;9.13;;;6.30;99.90;;;;;;4118045;28;20483;-79
2023/12/01 09:18:30;;;;;;;23.50;8.73;;;7.10;99.90;;;;;;4115965;28;20078;-80
2023/12/01 09:20:31;;;;;;;22.92;8.90;;;6.00;99.90;;;;;;4115804;28;20077;-80
2023/12/01 09:22:32;;;;;;;18.90;8.20;;;6.20;99.90;;;;;;4117391;28;20050;-80
2023/12/01 09:24:34;;;;;;;19.23;7.57;;;7.10;99.90;;;;;;4130901;28;20410;-83
2023/12/01 09:26:35;;;;;;;19.90;8.55;;;7.80;99.90;;;;;;4133479;28;20042;-80
2023/12/01 09:28:35;;;;;;;22.52;8.07;;;8.30;99.90;;;;;;4131777;28;20129;-79
2023/12/01 09:30:37;;;;;;;19.70;7.78;;;7.60;99.90;;;;;;4115274;28;20444;-79
2023/12/01 09:32:37;;;;;;;17.05;7.97;;;8.00;99.90;;;;;;4134096;28;20046;-80
2023/12/01 09:34:38;;;;;;;18.52;7.70;;;8.40;99.90;;;;;;4108366;28;20038;-80
2023/12/01 09:36:41;;;;;;;16.55;6.75;;;8.30;99.90;;;;;;4116981;28;20054;-80
2023/12/01 09:38:43;;;;;;;19.70;7.90;;;7.50;99.90;;;;;;4117296;28;20046;-80
2023/12/01 09:40:44;;;;;;;20.33;8.77;;;7.90;99.90;;;;;;4115905;28;20082;-79
2023/12/01 09:42:48;;;;;;;16.80;8.00;;;8.60;99.90;;;;;;4112754;28;20054;-80
2023/12/01 09:44:53;;;;;;;18.75;9.13;;;7.50;99.90;;;;;;4130763;28;20050;-79
2023/12/01 09:46:55;;;;;;;18.38;7.70;;;7.20;99.90;;;;;;4115118;28;20491;-81
2023/12/01 09:48:56;;;;;;;18.70;8.10;;;6.60;99.90;;;;;;4115224;28;20070;-81
2023/12/01 09:50:57;;;;;;;17.80;8.13;;;7.70;99.90;;;;;;4114099;28;20058;-81
2023/12/01 09:52:57;;;;;;;23.65;8.88;;;5.70;99.90;;;;;;4114967;28;20395;-81
2023/12/01 09:54:58;;;;;;;17.92;7.95;;;5.50;99.90;;;;;;4125768;28;20089;-81
2023/12/01 09:57:06;;;;;;;19.90;8.38;;;6.50;99.90;;;;;;4123816;28;20049;-81
2023/12/01 09:59:07;;;;;;;18.85;8.85;;;5.30;99.90;;;;;;4115319;28;20154;-81
2023/12/01 10:01:08;;;;;;;24.58;9.40;;;4.60;99.90;;;;;;4114938;28;20050;-81
2023/12/01 10:03:08;;;;;;;20.77;8.13;;;4.80;99.90;;;;;;4114861;28;20043;-81
2023/12/01 10:05:13;;;;;;;19.40;8.27;;;5.60;99.90;;;;;;4116549;28;20128;-81
2023/12/01 10:07:14;;;;;;;20.42;9.13;;;3.10;99.90;;;;;;4116260;28;20109;-81
2023/12/01 10:09:26;;;;;;;15.85;7.35;;;4.30;99.90;;;;;;4114884;28;20519;-81
2023/12/01 10:11:27;;;;;;;17.75;7.68;;;4.50;99.90;;;;;;4115338;28;20054;-81
2023/12/01 10:13:39;;;;;;;16.48;7.78;;;4.00;99.90;;;;;;4115227;28;20377;-81
2023/12/01 10:15:40;;;;;;;22.77;9.25;;;5.70;99.90;;;;;;4114921;28;20114;-81
2023/12/01 10:17:42;;;;;;;17.05;7.70;;;4.00;99.90;;;;;;4116376;28;20066;-81
2023/12/01 10:19:47;;;;;;;19.83;8.25;;;4.50;99.90;;;;;;4114722;28;20113;-81
2023/12/01 10:21:49;;;;;;;17.45;8.15;;;4.10;99.90;;;;;;4114617;28;20553;-81
2023/12/01 10:23:54;;;;;;;20.85;7.97;;;4.20;99.90;;;;;;4097870;28;20075;-81
2023/12/01 10:25:56;;;;;;;19.25;8.20;;;4.40;99.90;;;;;;4115948;28;20054;-81
2023/12/01 10:27:58;;;;;;;16.42;7.40;;;3.90;99.90;;;;;;4114934;28;20051;-81
2023/12/01 10:30:28;;;;;;;19.02;8.32;;;5.20;99.90;;;;;;4114853;28;20503;-81
2023/12/01 10:32:28;;;;;;;19.92;8.60;;;4.00;99.90;;;;;;4097990;28;20085;-81
2023/12/01 10:34:30;;;;;;;18.23;8.07;;;6.20;99.90;;;;;;4114611;28;20055;-80
2023/12/01 10:36:31;;;;;;;17.35;8.10;;;4.50;99.90;;;;;;4114098;28;20122;-81
2023/12/01 10:38:33;;;;;;;19.05;7.88;;;5.30;99.90;;;;;;4115913;28;20101;-79
2023/12/01 10:40:34;;;;;;;16.08;7.68;;;4.30;99.90;;;;;;4117226;28;20085;-80
2023/12/01 10:42:36;;;;;;;19.02;8.75;;;5.10;99.90;;;;;;4116450;28;20078;-79
2023/12/01 10:44:38;;;;;;;16.08;8.25;;;4.50;99.90;;;;;;4117277;28;20035;-79
2023/12/01 10:46:41;;;;;;;19.40;8.25;;;5.00;99.90;;;;;;4116400;28;20615;-80
2023/12/01 10:48:43;;;;;;;17.52;8.30;;;4.80;99.90;;;;;;4100830;28;20047;-80
2023/12/01 10:50:45;;;;;;;19.25;7.75;;;5.50;99.90;;;;;;4125658;28;20062;-80
2023/12/01 10:52:48;;;;;;;17.10;7.72;;;5.60;99.90;;;;;;4117623;28;20089;-80
2023/12/01 10:54:49;;;;;;;17.45;7.57;;;3.70;99.90;;;;;;4115693;28;20058;-79
2023/12/01 10:57:19;;;;;;;16.52;7.78;;;4.50;99.90;;;;;;4119139;28;20039;-80
2023/12/01 10:59:23;;;;;;;17.85;8.25;;;4.50;99.90;;;;;;4126691;28;20122;-80
2023/12/01 11:01:27;;;;;;;17.35;7.63;;;5.60;99.90;;;;;;4115948;28;20516;-80
2023/12/01 11:03:30;;;;;;;16.40;7.65;;;4.80;99.90;;;;;;4117302;28;20035;-80
2023/12/01 11:05:34;;;;;;;21.30;8.02;;;5.20;99.90;;;;;;4116875;28;20055;-80